Perryville, Pennsylvania
Current Conditions -  °F | °C
As of 6:54 PM on Monday 24 Nov 2014 (Local Time) from KIPT Reporting Station
Clear Clear  
Wind Chill: 64°   Ceiling: Unl
Heat Index: 64°   Visibility: 10mi
Dew Point: 50°   Wind: 14mph
Humidity: 60%   Direction: 160°SSE
Pressure: 29.56"   Gusts: 29mph
Location:  41.3181°N, 77.075°W
Report Text: KIPT 242354Z 16012G25KT 10SM CLR 18/10 A2956 RMK AO2 PK WND 14029/2259 SLP009 T01780100 10206 20178 52028
Loading
Personal Weather Stations






























Interactive Weather Map New forecast layout! Learn more

10-Day Weather Forecast

Advertisements
Track Severe Weather on mobile